createdAt,value
2023-04-22T00:03:29.041Z,11.25
2023-04-22T00:08:31.201Z,11.65
2023-04-22T00:13:33.115Z,10.43
2023-04-22T00:18:36.265Z,10.55
2023-04-22T00:23:38.125Z,9.82
2023-04-22T00:28:40.079Z,10.23
2023-04-22T00:33:42.148Z,10.20
2023-04-22T00:38:50.033Z,9.73
2023-04-22T00:43:53.603Z,9.50
2023-04-22T00:48:55.656Z,9.38
2023-04-22T00:53:59.361Z,9.50
2023-04-22T00:59:01.289Z,9.27
2023-04-22T01:04:04.134Z,9.93
2023-04-22T01:09:07.506Z,10.45
2023-04-22T01:14:10.025Z,9.93
2023-04-22T01:19:12.191Z,9.35
2023-04-22T01:24:14.233Z,10.43
2023-04-22T01:29:16.366Z,10.20
2023-04-22T01:34:18.199Z,10.25
2023-04-22T01:39:20.150Z,10.40
2023-04-22T01:44:21.989Z,10.20
2023-04-22T01:49:25.230Z,9.77
2023-04-22T01:54:27.178Z,10.65
2023-04-22T01:59:28.980Z,11.02
2023-04-22T02:04:30.946Z,11.07
2023-04-22T02:09:35.249Z,9.68
2023-04-22T02:14:37.041Z,9.65
2023-04-22T02:19:39.478Z,10.70
2023-04-22T02:24:43.127Z,11.45
2023-04-22T02:29:44.973Z,11.02
2023-04-22T02:34:48.541Z,11.38
2023-04-22T02:39:50.404Z,12.88
2023-04-22T02:44:52.695Z,11.45
2023-04-22T02:49:55.518Z,10.75
2023-04-22T02:54:57.410Z,11.63
2023-04-22T02:59:59.264Z,11.07
2023-04-22T03:05:01.099Z,10.65
2023-04-22T03:10:05.042Z,10.10
2023-04-22T03:15:07.825Z,10.48
2023-04-22T03:20:10.849Z,9.57
2023-04-22T03:25:12.845Z,10.82
2023-04-22T03:30:15.579Z,9.82
2023-04-22T03:35:18.059Z,9.85
2023-04-22T03:40:23.062Z,9.43
2023-04-22T03:45:24.994Z,10.95
2023-04-22T03:50:45.943Z,9.95
2023-04-22T03:55:48.376Z,10.68
2023-04-22T04:00:52.546Z,8.73
2023-04-22T04:05:54.853Z,9.75
2023-04-22T04:10:57.166Z,9.65
2023-04-22T04:16:00.501Z,10.63
2023-04-22T04:21:04.538Z,10.25
2023-04-22T04:26:09.565Z,9.75
2023-04-22T04:31:14.519Z,9.88
2023-04-22T04:36:16.792Z,9.23
2023-04-22T04:41:21.345Z,9.63
2023-04-22T04:46:24.300Z,10.20
2023-04-22T04:51:26.848Z,10.52
2023-04-22T04:56:32.733Z,9.35
2023-04-22T05:01:35.798Z,8.65
2023-04-22T05:06:42.344Z,9.10
2023-04-22T05:11:44.508Z,9.18
2023-04-22T05:16:51.752Z,8.75
2023-04-22T05:21:53.553Z,9.45
2023-04-22T05:26:55.420Z,8.95
2023-04-22T05:31:58.268Z,9.48
2023-04-22T05:37:00.039Z,8.20
2023-04-22T05:42:02.694Z,9.20
2023-04-22T05:47:05.776Z,8.85
2023-04-22T05:52:07.513Z,9.80
2023-04-22T05:57:21.787Z,9.00
2023-04-22T06:02:24.079Z,8.05
2023-04-22T06:07:25.888Z,9.45
2023-04-22T06:12:27.560Z,8.52
2023-04-22T06:17:29.268Z,10.48
2023-04-22T06:22:31.455Z,11.77
2023-04-22T06:27:33.043Z,15.85
2023-04-22T06:32:34.689Z,15.57
2023-04-22T06:37:37.271Z,16.13
2023-04-22T06:42:42.041Z,17.40
2023-04-22T06:48:02.328Z,17.70
2023-04-22T06:53:19.201Z,16.73
2023-04-22T06:58:21.666Z,17.42
2023-04-22T07:03:24.754Z,17.88
2023-04-22T07:08:36.182Z,17.52
2023-04-22T07:13:38.009Z,17.52
2023-04-22T07:18:39.952Z,17.60
2023-04-22T07:23:41.583Z,17.63
2023-04-22T07:28:43.211Z,18.05
2023-04-22T07:33:44.880Z,17.70
2023-04-22T07:38:46.556Z,17.45
2023-04-22T07:43:48.566Z,17.73
2023-04-22T07:48:50.380Z,17.15
2023-04-22T07:53:51.956Z,18.33
2023-04-22T07:58:53.635Z,17.15
2023-04-22T08:03:55.591Z,17.63
2023-04-22T08:08:57.478Z,17.60
2023-04-22T08:13:59.125Z,17.00
2023-04-22T08:19:00.765Z,17.20
2023-04-22T08:24:02.413Z,17.05
2023-04-22T08:29:04.736Z,16.67
2023-04-22T08:34:06.411Z,16.30
2023-04-22T08:39:08.075Z,16.83
2023-04-22T08:44:11.289Z,17.33
2023-04-22T08:49:15.571Z,16.42
2023-04-22T08:54:17.196Z,17.13
2023-04-22T08:59:20.455Z,16.58
2023-04-22T09:04:22.846Z,17.52
2023-04-22T09:09:24.966Z,17.30
2023-04-22T09:14:27.272Z,18.38
2023-04-22T09:19:28.881Z,17.00
2023-04-22T09:24:30.580Z,16.95
2023-04-22T09:29:32.195Z,17.17
2023-04-22T09:34:34.410Z,16.85
2023-04-22T09:39:36.071Z,17.67
2023-04-22T09:44:39.006Z,17.27
2023-04-22T09:49:49.919Z,16.80
2023-04-22T09:54:54.683Z,17.45
2023-04-22T09:59:58.987Z,16.92
2023-04-22T10:05:01.470Z,17.20
2023-04-22T10:10:03.673Z,17.40
2023-04-22T10:15:06.868Z,17.63
2023-04-22T10:20:15.514Z,17.45
2023-04-22T10:25:25.664Z,17.33
2023-04-22T10:30:29.642Z,17.27
2023-04-22T10:35:31.259Z,17.77
2023-04-22T10:40:33.213Z,18.20
2023-04-22T10:45:36.627Z,17.10
2023-04-22T10:50:38.354Z,18.38
2023-04-22T10:55:53.450Z,18.08
2023-04-22T11:01:03.097Z,17.48
2023-04-22T11:06:22.192Z,18.00
2023-04-22T11:11:23.846Z,17.67
2023-04-22T11:16:25.786Z,18.20
2023-04-22T11:21:27.803Z,17.67
2023-04-22T11:26:36.289Z,18.48
2023-04-22T11:31:38.112Z,17.50
2023-04-22T11:36:45.195Z,18.08
2023-04-22T11:41:46.850Z,17.40
2023-04-22T11:46:48.744Z,16.83
2023-04-22T11:51:55.225Z,17.17
2023-04-22T11:56:56.853Z,18.42
2023-04-22T12:01:58.584Z,17.50
2023-04-22T12:07:00.278Z,18.35
2023-04-22T12:12:04.310Z,17.30
2023-04-22T12:17:09.463Z,17.23
2023-04-22T12:22:11.127Z,17.40
2023-04-22T12:27:12.749Z,17.63
2023-04-22T12:32:14.430Z,17.77
2023-04-22T12:37:16.466Z,17.50
2023-04-22T12:42:18.102Z,18.45
2023-04-22T12:47:19.897Z,17.25
2023-04-22T12:52:21.587Z,17.63
2023-04-22T12:57:23.326Z,17.95
2023-04-22T13:02:25.575Z,17.48
2023-04-22T13:07:27.259Z,17.80
2023-04-22T13:12:28.864Z,17.55
2023-04-22T13:17:31.029Z,17.30
2023-04-22T13:22:33.777Z,17.45
2023-04-22T13:27:35.835Z,17.80
2023-04-22T13:32:38.642Z,16.80
2023-04-22T13:37:40.385Z,17.85
2023-04-22T13:42:42.847Z,17.75
2023-04-22T13:47:44.580Z,17.67
2023-04-22T13:52:46.685Z,18.17
2023-04-22T13:57:50.364Z,18.05
2023-04-22T14:02:52.267Z,17.92
2023-04-22T14:07:54.265Z,19.10
2023-04-22T14:12:56.008Z,19.50
2023-04-22T14:17:57.674Z,19.00
2023-04-22T14:23:00.874Z,18.83
2023-04-22T14:28:03.299Z,19.00
2023-04-22T14:33:08.856Z,18.58
2023-04-22T14:38:11.545Z,19.45
2023-04-22T14:43:14.475Z,19.23
2023-04-22T14:48:16.082Z,18.95
2023-04-22T14:53:17.750Z,18.20
2023-04-22T14:58:19.446Z,16.92
2023-04-22T15:03:21.560Z,18.48
2023-04-22T15:08:25.385Z,18.38
2023-04-22T15:13:27.057Z,18.55
2023-04-22T15:18:28.796Z,19.08
2023-04-22T15:23:30.447Z,19.65
2023-04-22T15:28:32.584Z,20.63
2023-04-22T15:33:34.255Z,19.80
2023-04-22T15:38:38.006Z,20.48
2023-04-22T15:43:39.706Z,20.40
2023-04-22T15:48:44.423Z,20.17
2023-04-22T15:53:46.369Z,20.35
2023-04-22T15:58:47.983Z,21.52
2023-04-22T16:03:49.823Z,20.70
2023-04-22T16:08:51.654Z,19.90
2023-04-22T16:13:53.313Z,20.80
2023-04-22T16:18:54.994Z,21.08
2023-04-22T16:23:56.719Z,19.98
2023-04-22T16:28:58.405Z,22.08
2023-04-22T16:34:00.037Z,21.58
2023-04-22T16:39:01.816Z,20.85
2023-04-22T16:44:03.504Z,20.92
2023-04-22T16:49:06.891Z,20.80
2023-04-22T16:54:09.375Z,20.85
2023-04-22T16:59:11.048Z,21.17
2023-04-22T17:04:13.594Z,21.95
2023-04-22T17:09:16.207Z,23.00
2023-04-22T17:14:17.941Z,23.40
2023-04-22T17:19:19.633Z,21.13
2023-04-22T17:24:22.400Z,21.02
2023-04-22T17:29:24.274Z,20.75
2023-04-22T17:34:26.988Z,21.10
2023-04-22T17:39:28.756Z,21.13
2023-04-22T17:44:31.101Z,27.17
2023-04-22T17:49:32.890Z,22.77
2023-04-22T17:54:34.594Z,20.58
2023-04-22T17:59:36.362Z,21.42
2023-04-22T18:04:39.757Z,21.00
2023-04-22T18:09:41.692Z,21.75
2023-04-22T18:14:43.678Z,22.73
2023-04-22T18:19:45.538Z,21.77
2023-04-22T18:24:48.016Z,22.48
2023-04-22T18:29:51.284Z,22.80
2023-04-22T18:34:52.922Z,23.40
2023-04-22T18:39:54.536Z,22.85
2023-04-22T18:44:56.175Z,23.55
2023-04-22T18:49:57.995Z,24.83
2023-04-22T18:54:59.665Z,22.95
2023-04-22T19:00:01.397Z,22.17
2023-04-22T19:05:03.104Z,23.23
2023-04-22T19:10:05.302Z,22.83
2023-04-22T19:15:07.554Z,23.65
2023-04-22T19:20:09.715Z,24.30
2023-04-22T19:25:11.419Z,24.70
2023-04-22T19:30:13.311Z,23.05
2023-04-22T19:35:16.262Z,22.00
2023-04-22T19:40:18.735Z,24.23
2023-04-22T19:45:21.224Z,25.45
2023-04-22T19:50:23.831Z,25.17
2023-04-22T19:55:26.415Z,21.95
2023-04-22T20:00:28.335Z,21.77
2023-04-22T20:05:30.226Z,22.80
2023-04-22T20:10:32.346Z,25.35
2023-04-22T20:15:34.127Z,28.38
2023-04-22T20:20:35.877Z,30.30
2023-04-22T20:25:47.081Z,25.70
2023-04-22T20:30:49.022Z,24.92
2023-04-22T20:35:50.789Z,22.60
2023-04-22T20:40:53.412Z,23.60
2023-04-22T20:45:55.056Z,23.38
2023-04-22T20:50:56.813Z,23.48
2023-04-22T20:55:58.601Z,23.63
2023-04-22T21:01:00.401Z,21.38
2023-04-22T21:06:02.484Z,21.65
2023-04-22T21:11:04.344Z,23.55
2023-04-22T21:16:10.499Z,21.38
2023-04-22T21:21:16.200Z,21.35
2023-04-22T21:26:18.724Z,20.52
2023-04-22T21:31:21.060Z,22.20
2023-04-22T21:36:23.078Z,21.85
2023-04-22T21:41:24.807Z,22.10
2023-04-22T21:46:26.537Z,23.35
2023-04-22T21:51:28.668Z,24.27
2023-04-22T21:56:33.484Z,24.27
2023-04-22T22:01:35.351Z,21.77
2023-04-22T22:06:37.315Z,22.75
2023-04-22T22:11:38.921Z,22.48
2023-04-22T22:16:40.627Z,21.52
2023-04-22T22:21:42.336Z,21.33
2023-04-22T22:26:44.425Z,22.10
2023-04-22T22:31:47.322Z,21.85
2023-04-22T22:36:49.105Z,22.35
2023-04-22T22:41:50.789Z,19.02
2023-04-22T22:46:53.637Z,19.33
2023-04-22T22:51:55.577Z,21.63
2023-04-22T22:56:58.359Z,20.80
2023-04-22T23:02:00.350Z,20.52
2023-04-22T23:07:02.056Z,18.80
2023-04-22T23:12:03.855Z,18.60
2023-04-22T23:17:05.958Z,19.42
2023-04-22T23:22:09.348Z,19.30
2023-04-22T23:27:11.195Z,19.38
2023-04-22T23:32:16.207Z,18.48
2023-04-22T23:37:19.160Z,18.20
2023-04-22T23:42:20.815Z,18.75
2023-04-22T23:47:22.614Z,18.58
2023-04-22T23:52:24.331Z,20.05
2023-04-22T23:57:26.310Z,17.70
